createdAt,value
2022-11-16T00:01:01.263Z,9.23
2022-11-16T00:03:29.852Z,8.17
2022-11-16T00:05:59.153Z,9.17
2022-11-16T00:08:27.845Z,8.90
2022-11-16T00:10:56.114Z,8.83
2022-11-16T00:13:25.863Z,8.43
2022-11-16T00:15:57.874Z,8.27
2022-11-16T00:18:26.153Z,8.37
2022-11-16T00:20:54.563Z,8.30
2022-11-16T00:23:23.149Z,8.80
2022-11-16T00:25:52.107Z,8.07
2022-11-16T00:28:20.546Z,8.50
2022-11-16T00:30:59.861Z,8.23
2022-11-16T00:33:28.241Z,7.93
2022-11-16T00:35:56.767Z,7.30
2022-11-16T00:38:25.615Z,8.50
2022-11-16T00:40:53.971Z,8.10
2022-11-16T00:43:22.501Z,8.20
2022-11-16T00:45:52.230Z,8.30
2022-11-16T00:48:21.059Z,7.93
2022-11-16T00:50:49.473Z,7.70
2022-11-16T00:53:19.827Z,8.23
2022-11-16T00:55:49.050Z,7.93
2022-11-16T00:58:17.841Z,8.47
2022-11-16T01:00:46.254Z,11.63
2022-11-16T01:03:16.031Z,10.10
2022-11-16T01:05:44.580Z,8.23
2022-11-16T01:08:13.062Z,7.40
2022-11-16T01:10:42.490Z,6.53
2022-11-16T01:13:11.524Z,6.10
2022-11-16T01:15:39.908Z,6.00
2022-11-16T01:18:08.187Z,5.97
2022-11-16T01:20:37.909Z,5.57
2022-11-16T01:23:06.257Z,5.57
2022-11-16T01:25:34.705Z,6.00
2022-11-16T01:28:03.017Z,5.37
2022-11-16T01:30:31.383Z,5.53
2022-11-16T01:32:59.675Z,5.47
2022-11-16T01:35:28.002Z,4.73
2022-11-16T01:37:57.708Z,4.73
2022-11-16T01:40:29.188Z,4.43
2022-11-16T01:42:57.495Z,4.33
2022-11-16T01:45:36.544Z,4.20
2022-11-16T01:48:05.091Z,3.40
2022-11-16T01:50:33.657Z,3.60
2022-11-16T01:53:06.102Z,3.97
2022-11-16T01:55:36.937Z,3.20
2022-11-16T01:58:05.854Z,3.47
2022-11-16T02:00:34.380Z,3.70
2022-11-16T02:03:02.738Z,3.23
2022-11-16T02:05:38.437Z,3.47
2022-11-16T02:08:39.578Z,4.90
2022-11-16T02:11:27.665Z,3.53
2022-11-16T02:14:07.800Z,4.03
2022-11-16T02:16:46.947Z,3.77
2022-11-16T02:19:45.305Z,4.20
2022-11-16T02:22:26.851Z,4.20
2022-11-16T02:25:04.174Z,3.80
2022-11-16T02:27:50.482Z,4.10
2022-11-16T02:30:22.573Z,3.50
2022-11-16T02:32:55.493Z,4.03
2022-11-16T02:35:28.309Z,3.63
2022-11-16T02:38:01.261Z,3.50
2022-11-16T02:40:33.065Z,3.40
2022-11-16T02:43:07.918Z,4.10
2022-11-16T02:45:41.720Z,3.70
2022-11-16T02:48:14.173Z,3.80
2022-11-16T02:50:44.034Z,4.17
2022-11-16T02:53:12.345Z,3.87
2022-11-16T02:55:40.751Z,4.87
2022-11-16T02:58:12.352Z,4.43
2022-11-16T03:00:48.169Z,4.40
2022-11-16T03:03:24.363Z,4.50
2022-11-16T03:05:55.866Z,4.53
2022-11-16T03:08:29.774Z,4.30
2022-11-16T03:11:19.258Z,3.73
2022-11-16T03:13:49.936Z,3.83
2022-11-16T03:16:24.527Z,3.70
2022-11-16T03:18:56.066Z,3.57
2022-11-16T03:21:31.758Z,3.83
2022-11-16T03:24:00.322Z,3.70
2022-11-16T03:26:34.748Z,3.90
2022-11-16T03:29:09.770Z,3.93
2022-11-16T03:31:45.272Z,3.60
2022-11-16T03:34:20.266Z,3.60
2022-11-16T03:36:51.691Z,4.73
2022-11-16T03:39:33.547Z,3.77
2022-11-16T03:42:04.266Z,3.47
2022-11-16T03:44:32.845Z,3.70
2022-11-16T03:47:03.059Z,3.00
2022-11-16T03:49:32.539Z,3.37
2022-11-16T03:52:00.898Z,2.90
2022-11-16T03:54:29.233Z,3.30
2022-11-16T03:56:57.474Z,3.43
2022-11-16T03:59:25.861Z,3.80
2022-11-16T04:01:54.242Z,4.40
2022-11-16T04:04:41.154Z,4.90
2022-11-16T04:07:27.363Z,4.10
2022-11-16T04:10:12.822Z,6.13
2022-11-16T04:13:01.244Z,4.00
2022-11-16T04:15:46.722Z,3.37
2022-11-16T04:18:32.726Z,3.70
2022-11-16T04:21:20.753Z,3.20
2022-11-16T04:24:07.406Z,3.10
2022-11-16T04:26:53.026Z,3.03
2022-11-16T04:29:21.481Z,2.70
2022-11-16T04:32:07.120Z,2.90
2022-11-16T04:34:52.736Z,4.67
2022-11-16T04:37:39.833Z,2.53
2022-11-16T04:40:09.710Z,2.50
2022-11-16T04:42:38.033Z,2.87
2022-11-16T04:45:25.529Z,4.50
2022-11-16T04:47:54.554Z,5.20
2022-11-16T04:50:22.861Z,4.67
2022-11-16T04:52:52.608Z,4.33
2022-11-16T04:55:20.968Z,4.37
2022-11-16T04:57:49.260Z,4.63
2022-11-16T05:00:18.645Z,5.73
2022-11-16T05:02:47.077Z,4.27
2022-11-16T05:05:15.658Z,4.30
2022-11-16T05:07:44.015Z,4.43
2022-11-16T05:10:14.227Z,4.40
2022-11-16T05:12:43.088Z,4.40
2022-11-16T05:15:11.806Z,4.50
2022-11-16T05:17:40.115Z,3.87
2022-11-16T05:20:28.470Z,4.60
2022-11-16T05:22:57.214Z,4.40
2022-11-16T05:25:30.219Z,4.10
2022-11-16T05:28:01.211Z,3.53
2022-11-16T05:30:29.907Z,4.10
2022-11-16T05:32:58.153Z,3.80
2022-11-16T05:35:26.462Z,4.23
2022-11-16T05:37:54.758Z,4.37
2022-11-16T05:40:23.068Z,3.83
2022-11-16T05:42:52.822Z,3.97
2022-11-16T05:45:21.443Z,4.27
2022-11-16T05:47:49.793Z,4.00
2022-11-16T05:50:18.585Z,4.43
2022-11-16T05:52:46.880Z,3.97
2022-11-16T05:55:15.353Z,3.70
2022-11-16T05:57:43.788Z,3.93
2022-11-16T06:00:15.372Z,5.00
2022-11-16T06:02:43.809Z,4.57
2022-11-16T06:05:12.158Z,4.10
2022-11-16T06:07:40.517Z,4.60
2022-11-16T06:10:09.285Z,5.43
2022-11-16T06:12:37.647Z,5.90
2022-11-16T06:15:07.225Z,5.37
2022-11-16T06:17:36.912Z,4.40
2022-11-16T06:20:05.756Z,4.73
2022-11-16T06:22:34.033Z,5.10
2022-11-16T06:25:02.414Z,4.97
2022-11-16T06:27:30.726Z,5.13
2022-11-16T06:29:59.031Z,5.07
2022-11-16T06:32:27.440Z,4.67
2022-11-16T06:34:57.113Z,5.47
2022-11-16T06:37:25.446Z,6.20
2022-11-16T06:39:53.706Z,6.63
2022-11-16T06:42:22.126Z,7.33
2022-11-16T06:44:50.482Z,6.47
2022-11-16T06:47:18.782Z,6.37
2022-11-16T06:49:47.614Z,8.00
2022-11-16T06:52:17.318Z,7.67
2022-11-16T06:54:45.703Z,6.17
2022-11-16T06:57:14.113Z,7.20
2022-11-16T06:59:42.439Z,14.03
2022-11-16T07:02:11.653Z,20.30
2022-11-16T07:04:40.158Z,15.77
2022-11-16T07:07:08.546Z,10.30
2022-11-16T07:09:38.216Z,8.00
2022-11-16T07:12:06.844Z,6.60
2022-11-16T07:14:35.129Z,6.60
2022-11-16T07:17:09.183Z,6.67
2022-11-16T07:19:37.899Z,7.40
2022-11-16T07:22:06.531Z,6.80
2022-11-16T07:24:34.994Z,6.20
2022-11-16T07:27:04.657Z,6.67
2022-11-16T07:29:32.920Z,7.27
2022-11-16T07:32:01.238Z,6.43
2022-11-16T07:34:29.500Z,6.10
2022-11-16T07:36:57.876Z,5.57
2022-11-16T07:39:26.110Z,5.10
2022-11-16T07:41:54.499Z,5.40
2022-11-16T07:44:24.098Z,4.57
2022-11-16T07:46:52.400Z,4.37
2022-11-16T07:49:21.121Z,4.30
2022-11-16T07:51:49.380Z,4.50
2022-11-16T07:54:17.862Z,3.93
2022-11-16T07:56:46.123Z,4.37
2022-11-16T07:59:14.410Z,3.90
2022-11-16T08:01:44.204Z,4.07
2022-11-16T08:04:12.502Z,4.43
2022-11-16T08:06:40.821Z,4.53
2022-11-16T08:09:10.011Z,4.40
2022-11-16T08:11:38.346Z,3.73
2022-11-16T08:14:06.826Z,4.23
2022-11-16T08:16:35.169Z,4.63
2022-11-16T08:19:04.985Z,6.37
2022-11-16T08:21:33.310Z,6.33
2022-11-16T08:24:01.574Z,6.97
2022-11-16T08:26:29.981Z,6.90
2022-11-16T08:28:58.249Z,6.33
2022-11-16T08:31:28.599Z,6.87
2022-11-16T08:33:57.717Z,7.80
2022-11-16T08:36:27.625Z,8.73
2022-11-16T08:38:55.942Z,8.20
2022-11-16T08:41:24.304Z,6.73
2022-11-16T08:43:53.492Z,5.13
2022-11-16T08:46:22.650Z,4.77
2022-11-16T08:48:50.965Z,4.37
2022-11-16T08:51:20.402Z,4.17
2022-11-16T08:53:50.939Z,3.80
2022-11-16T08:56:19.818Z,4.00
2022-11-16T08:58:51.489Z,4.03
2022-11-16T09:01:25.939Z,4.70
2022-11-16T09:03:55.034Z,5.50
2022-11-16T09:06:24.080Z,5.30
2022-11-16T09:08:54.381Z,5.03
2022-11-16T09:11:24.326Z,6.07
2022-11-16T09:13:54.967Z,6.60
2022-11-16T09:16:24.634Z,6.70
2022-11-16T09:18:53.269Z,7.50
2022-11-16T09:21:23.881Z,6.67
2022-11-16T09:23:54.851Z,5.63
2022-11-16T09:26:23.518Z,5.90
2022-11-16T09:28:58.171Z,5.33
2022-11-16T09:31:27.574Z,5.60
2022-11-16T09:33:59.079Z,6.40
2022-11-16T09:36:28.646Z,6.50
2022-11-16T09:41:59.460Z,5.17
2022-11-16T09:44:52.162Z,4.43
2022-11-16T09:47:23.614Z,4.90
2022-11-16T09:49:59.776Z,5.53
2022-11-16T09:52:35.872Z,5.40
2022-11-16T09:55:19.417Z,5.00
2022-11-16T09:57:49.329Z,8.40
2022-11-16T10:00:23.015Z,7.23
2022-11-16T10:03:00.526Z,8.47
2022-11-16T10:05:32.232Z,12.17
2022-11-16T10:08:07.535Z,10.47
2022-11-16T10:10:40.617Z,9.83
2022-11-16T10:13:19.884Z,8.80
2022-11-16T10:16:02.380Z,9.07
2022-11-16T10:18:43.068Z,9.07
2022-11-16T10:21:34.904Z,9.40
2022-11-16T10:24:41.572Z,9.37
2022-11-16T10:27:23.874Z,8.77
2022-11-16T10:30:00.751Z,7.57
2022-11-16T10:32:32.128Z,8.87
2022-11-16T10:35:05.610Z,8.13
2022-11-16T10:37:37.732Z,7.40
2022-11-16T10:40:20.757Z,6.80
2022-11-16T10:43:05.361Z,6.90
2022-11-16T10:45:40.277Z,7.67
2022-11-16T10:48:26.173Z,8.10
2022-11-16T10:50:54.896Z,8.50
2022-11-16T10:53:28.995Z,8.20
2022-11-16T10:56:17.553Z,8.23
2022-11-16T10:58:58.722Z,9.40
2022-11-16T11:01:48.123Z,9.43
2022-11-16T11:04:24.573Z,8.37
2022-11-16T11:06:54.909Z,9.50
2022-11-16T11:09:29.829Z,8.47
2022-11-16T11:12:21.655Z,8.43
2022-11-16T11:15:25.496Z,7.87
2022-11-16T11:18:14.754Z,9.47
2022-11-16T11:20:45.478Z,9.93
2022-11-16T11:23:17.214Z,8.63
2022-11-16T11:25:52.911Z,8.53
2022-11-16T11:28:26.211Z,7.53
2022-11-16T11:31:00.833Z,7.10
2022-11-16T11:33:33.890Z,6.17
2022-11-16T11:36:06.928Z,5.70
2022-11-16T11:38:36.247Z,5.03
2022-11-16T11:41:06.204Z,4.70
2022-11-16T11:43:35.386Z,5.03
2022-11-16T11:46:14.057Z,6.27
2022-11-16T11:48:49.138Z,7.13
2022-11-16T11:51:25.322Z,7.77
2022-11-16T11:53:57.930Z,7.93
2022-11-16T11:56:27.348Z,7.83
2022-11-16T11:58:56.476Z,6.20
2022-11-16T12:01:42.998Z,5.90
2022-11-16T12:04:57.266Z,4.93
2022-11-16T12:07:37.230Z,5.03
2022-11-16T12:10:13.159Z,4.57
2022-11-16T12:12:56.104Z,4.30
2022-11-16T12:15:44.441Z,4.30
2022-11-16T12:18:29.539Z,4.43
2022-11-16T12:21:07.997Z,4.00
2022-11-16T12:24:02.598Z,5.07
2022-11-16T12:26:41.236Z,6.13
2022-11-16T12:29:25.606Z,6.20
2022-11-16T12:32:26.620Z,5.70
2022-11-16T12:35:12.208Z,5.70
2022-11-16T12:37:49.434Z,6.87
2022-11-16T12:40:37.454Z,8.33
2022-11-16T12:43:14.073Z,9.60
2022-11-16T12:46:01.110Z,9.67
2022-11-16T12:49:03.270Z,9.07
2022-11-16T12:51:53.918Z,8.90
2022-11-16T12:55:04.228Z,8.17
2022-11-16T12:57:45.172Z,8.60
2022-11-16T13:00:15.862Z,8.73
2022-11-16T13:03:13.049Z,8.60
2022-11-16T13:05:57.373Z,9.17
2022-11-16T13:08:42.200Z,10.13
2022-11-16T13:11:15.562Z,10.63
2022-11-16T13:13:52.702Z,11.67
2022-11-16T13:16:23.306Z,11.77
2022-11-16T13:18:52.902Z,12.80
2022-11-16T13:21:31.387Z,11.83
2022-11-16T13:24:24.310Z,10.40
2022-11-16T13:27:00.341Z,8.77
2022-11-16T13:29:37.318Z,7.68
2022-11-16T13:32:12.117Z,6.85
2022-11-16T13:34:42.655Z,6.63
2022-11-16T13:37:45.455Z,4.67
2022-11-16T13:40:23.502Z,5.10
2022-11-16T13:43:16.908Z,5.85
2022-11-16T13:45:57.089Z,6.60
2022-11-16T13:48:30.702Z,4.68
2022-11-16T13:51:01.735Z,4.80
2022-11-16T13:56:28.978Z,3.88
2022-11-16T13:58:59.578Z,2.92
2022-11-16T14:01:58.640Z,4.63
2022-11-16T14:04:43.859Z,4.43
2022-11-16T14:07:35.732Z,5.35
2022-11-16T14:10:08.047Z,4.50
2022-11-16T14:12:59.003Z,4.13
2022-11-16T14:15:37.910Z,5.10
2022-11-16T14:18:32.930Z,5.13
2022-11-16T14:21:07.475Z,4.83
2022-11-16T14:24:03.307Z,4.80
2022-11-16T14:26:43.681Z,4.30
2022-11-16T14:29:31.721Z,4.63
2022-11-16T14:32:02.245Z,4.73
2022-11-16T14:34:40.503Z,4.93
2022-11-16T14:37:14.254Z,4.87
2022-11-16T14:39:44.617Z,5.35
2022-11-16T14:42:18.688Z,5.13
2022-11-16T14:44:49.020Z,4.60
2022-11-16T14:47:24.664Z,5.90
2022-11-16T14:49:53.677Z,4.87
2022-11-16T14:52:29.988Z,4.60
2022-11-16T14:55:01.729Z,5.13
2022-11-16T14:57:30.047Z,4.90
2022-11-16T15:00:22.751Z,4.50
2022-11-16T15:02:59.163Z,4.17
2022-11-16T15:05:34.539Z,4.40
2022-11-16T15:08:13.877Z,7.78
2022-11-16T15:10:49.510Z,5.67
2022-11-16T15:13:23.315Z,6.33
2022-11-16T15:16:09.876Z,6.38
2022-11-16T15:18:38.243Z,6.40
2022-11-16T15:21:06.779Z,8.33
2022-11-16T15:24:01.992Z,6.50
2022-11-16T15:26:35.685Z,6.20
2022-11-16T15:29:04.031Z,6.03
2022-11-16T15:31:35.862Z,7.07
2022-11-16T15:34:04.228Z,5.13
2022-11-16T15:36:34.530Z,5.67
2022-11-16T15:39:05.067Z,5.93
2022-11-16T15:41:33.948Z,6.20
2022-11-16T15:44:15.127Z,8.57
2022-11-16T15:46:51.575Z,8.20
2022-11-16T15:49:30.320Z,6.77
2022-11-16T15:51:59.647Z,7.95
2022-11-16T15:54:29.566Z,11.20
2022-11-16T15:57:07.914Z,9.40
2022-11-16T15:59:38.318Z,9.27
2022-11-16T16:02:19.181Z,8.18
2022-11-16T16:04:47.650Z,12.83
2022-11-16T16:07:40.589Z,9.53
2022-11-16T16:10:25.332Z,8.70
2022-11-16T16:12:54.968Z,8.57
2022-11-16T16:15:25.691Z,6.90
2022-11-16T16:17:55.740Z,6.17
2022-11-16T16:20:26.566Z,6.17
2022-11-16T16:22:55.477Z,5.23
2022-11-16T16:25:28.516Z,6.40
2022-11-16T16:27:56.878Z,5.90
2022-11-16T16:30:25.596Z,5.00
2022-11-16T16:32:55.473Z,4.77
2022-11-16T16:35:25.541Z,3.90
2022-11-16T16:37:58.939Z,6.67
2022-11-16T16:40:27.505Z,6.03
2022-11-16T16:42:58.004Z,5.70
2022-11-16T16:45:35.533Z,4.47
2022-11-16T16:48:05.422Z,4.20
2022-11-16T16:50:33.715Z,5.27
2022-11-16T16:53:02.089Z,5.60
2022-11-16T16:55:35.701Z,6.30
2022-11-16T16:58:06.011Z,6.10
2022-11-16T17:00:34.406Z,4.93
2022-11-16T17:03:04.172Z,5.73
2022-11-16T17:05:34.026Z,4.83
2022-11-16T17:08:02.897Z,8.80
2022-11-16T17:10:31.190Z,18.23
2022-11-16T17:13:02.746Z,13.70
2022-11-16T17:15:31.107Z,10.67
2022-11-16T17:18:00.184Z,13.20
2022-11-16T17:20:30.112Z,12.50
2022-11-16T17:22:58.551Z,16.60
2022-11-16T17:25:26.955Z,14.43
2022-11-16T17:27:55.248Z,13.73
2022-11-16T17:30:23.772Z,24.93
2022-11-16T17:32:52.551Z,36.40
2022-11-16T17:35:21.162Z,33.77
2022-11-16T17:37:50.997Z,33.57
2022-11-16T17:40:20.561Z,37.33
2022-11-16T17:42:49.039Z,25.77
2022-11-16T17:45:17.554Z,20.37
2022-11-16T17:47:46.128Z,17.60
2022-11-16T17:50:15.111Z,20.23
2022-11-16T17:52:43.470Z,19.37
2022-11-16T17:55:13.574Z,16.57
2022-11-16T17:57:43.125Z,13.40
2022-11-16T18:00:12.988Z,13.70
2022-11-16T18:02:43.275Z,12.07
2022-11-16T18:05:11.783Z,13.47
2022-11-16T18:07:41.280Z,11.77
2022-11-16T18:10:14.952Z,11.57
2022-11-16T18:12:47.983Z,11.77
2022-11-16T18:15:32.104Z,9.83
2022-11-16T18:18:00.711Z,11.57
2022-11-16T18:20:29.539Z,12.37
2022-11-16T18:22:58.173Z,16.53
2022-11-16T18:25:26.979Z,21.00
2022-11-16T18:27:57.256Z,21.97
2022-11-16T18:30:25.911Z,19.87
2022-11-16T18:32:54.469Z,17.27
2022-11-16T18:35:22.775Z,14.67
2022-11-16T18:37:51.217Z,13.70
2022-11-16T18:40:19.663Z,28.20
2022-11-16T18:42:48.641Z,32.27
2022-11-16T18:45:18.583Z,30.83
2022-11-16T18:47:46.983Z,31.87
2022-11-16T18:50:20.233Z,43.07
2022-11-16T18:52:51.121Z,32.57
2022-11-16T18:55:19.441Z,23.93
2022-11-16T18:57:47.780Z,18.17
2022-11-16T19:00:20.853Z,19.10
2022-11-16T19:02:49.238Z,20.37
2022-11-16T19:05:17.640Z,14.10
2022-11-16T19:07:46.066Z,11.40
2022-11-16T19:10:14.573Z,9.97
2022-11-16T19:12:42.998Z,11.00
2022-11-16T19:15:11.985Z,11.13
2022-11-16T19:17:59.610Z,11.77
2022-11-16T19:20:30.579Z,15.37
2022-11-16T19:22:59.386Z,14.60
2022-11-16T19:25:27.901Z,14.30
2022-11-16T19:27:56.294Z,14.50
2022-11-16T19:30:24.583Z,16.13
2022-11-16T19:32:58.542Z,23.90
2022-11-16T19:35:26.974Z,25.37
2022-11-16T19:37:55.319Z,26.07
2022-11-16T19:40:25.103Z,33.00
2022-11-16T19:42:54.691Z,31.83
2022-11-16T19:45:23.028Z,18.77
2022-11-16T19:47:51.358Z,12.00
2022-11-16T19:50:21.239Z,10.40
2022-11-16T19:52:49.525Z,12.23
2022-11-16T19:55:17.906Z,10.17
2022-11-16T19:57:46.241Z,9.57
2022-11-16T20:00:15.890Z,9.33
2022-11-16T20:02:44.186Z,9.30
2022-11-16T20:05:12.694Z,8.00
2022-11-16T20:07:43.365Z,8.87
2022-11-16T20:10:11.732Z,8.80
2022-11-16T20:12:40.410Z,11.30
2022-11-16T20:15:09.395Z,12.67
2022-11-16T20:17:37.972Z,10.10
2022-11-16T20:20:07.569Z,10.13
2022-11-16T20:22:37.192Z,9.67
2022-11-16T20:25:07.995Z,10.77
2022-11-16T20:27:37.174Z,9.57
2022-11-16T20:30:09.750Z,11.50
2022-11-16T20:32:38.619Z,10.60
2022-11-16T20:35:07.368Z,11.60
2022-11-16T20:37:36.731Z,9.47
2022-11-16T20:40:08.368Z,8.47
2022-11-16T20:42:37.108Z,8.67
2022-11-16T20:45:06.881Z,9.23
2022-11-16T20:47:35.738Z,8.57
2022-11-16T20:50:04.420Z,8.50
2022-11-16T20:52:33.702Z,8.53
2022-11-16T20:55:04.813Z,8.47
2022-11-16T20:57:35.872Z,10.57
2022-11-16T21:00:05.426Z,8.30
2022-11-16T21:02:33.933Z,7.83
2022-11-16T21:05:02.735Z,6.97
2022-11-16T21:07:31.159Z,6.30
2022-11-16T21:10:16.993Z,6.83
2022-11-16T21:13:04.641Z,7.33
2022-11-16T21:15:34.029Z,5.87
2022-11-16T21:18:02.607Z,7.03
2022-11-16T21:20:31.605Z,6.53
2022-11-16T21:23:00.448Z,7.33
2022-11-16T21:25:28.687Z,7.43
2022-11-16T21:27:58.670Z,5.80
2022-11-16T21:30:27.551Z,6.00
2022-11-16T21:32:55.786Z,6.80
2022-11-16T21:35:26.300Z,9.50
2022-11-16T21:37:54.691Z,7.80
2022-11-16T21:40:23.029Z,7.67
2022-11-16T21:42:53.134Z,5.87
2022-11-16T21:45:23.582Z,5.23
2022-11-16T21:47:52.109Z,6.03
2022-11-16T21:50:36.056Z,4.33
2022-11-16T21:53:04.488Z,4.20
2022-11-16T21:55:33.429Z,4.50
2022-11-16T21:58:03.580Z,5.97
2022-11-16T22:00:33.515Z,5.83
2022-11-16T22:03:01.818Z,6.60
2022-11-16T22:05:47.400Z,6.23
2022-11-16T22:08:15.683Z,6.63
2022-11-16T22:10:44.022Z,6.60
2022-11-16T22:13:12.259Z,6.17
2022-11-16T22:15:41.994Z,7.20
2022-11-16T22:18:10.273Z,7.83
2022-11-16T22:20:38.602Z,8.50
2022-11-16T22:23:08.056Z,9.83
2022-11-16T22:25:38.169Z,8.93
2022-11-16T22:28:20.748Z,11.17
2022-11-16T22:30:52.197Z,7.97
2022-11-16T22:33:20.959Z,6.03
2022-11-16T22:35:50.242Z,4.93
2022-11-16T22:38:18.655Z,4.40
2022-11-16T22:40:51.116Z,4.53
2022-11-16T22:43:20.529Z,4.20
2022-11-16T22:45:50.936Z,4.53
2022-11-16T22:48:19.422Z,5.33
2022-11-16T22:50:48.532Z,5.03
2022-11-16T22:53:17.733Z,5.83
2022-11-16T22:55:46.012Z,5.07
2022-11-16T22:58:14.872Z,4.67
2022-11-16T23:00:44.657Z,5.87
2022-11-16T23:03:14.565Z,5.20
2022-11-16T23:05:43.911Z,4.90
2022-11-16T23:08:12.329Z,5.03
2022-11-16T23:10:54.708Z,6.80
2022-11-16T23:13:40.579Z,4.80
2022-11-16T23:16:09.234Z,4.63
2022-11-16T23:18:38.976Z,5.53
2022-11-16T23:21:24.802Z,4.37
2022-11-16T23:24:06.902Z,4.37
2022-11-16T23:27:07.016Z,9.10
2022-11-16T23:29:35.419Z,4.20
2022-11-16T23:32:03.929Z,4.03
2022-11-16T23:34:33.620Z,3.90
2022-11-16T23:37:04.185Z,4.60
2022-11-16T23:39:32.675Z,5.43
2022-11-16T23:42:19.031Z,5.00
2022-11-16T23:44:47.333Z,5.40
2022-11-16T23:47:15.608Z,4.83
2022-11-16T23:49:45.329Z,4.60
2022-11-16T23:52:13.741Z,6.03
2022-11-16T23:54:42.030Z,4.17
2022-11-16T23:57:10.518Z,4.67
2022-11-16T23:59:38.816Z,4.40
